createdAt,value
2023-04-09T00:00:36.836Z,23.1
2023-04-09T00:15:37.946Z,26.8
2023-04-09T00:30:38.707Z,26.8
2023-04-09T00:45:40.098Z,25
2023-04-09T01:00:39.858Z,25.9
2023-04-09T01:15:41.776Z,25.8
2023-04-09T01:30:40.463Z,25.5
2023-04-09T01:45:40.822Z,27.4
2023-04-09T02:00:41.419Z,26.9
2023-04-09T02:15:41.925Z,22.9
2023-04-09T02:30:43.799Z,28.3
2023-04-09T02:45:44.093Z,25.9
2023-04-09T03:00:52.428Z,24.5
2023-04-09T03:15:45.941Z,25.9
2023-04-09T03:30:46.141Z,26.9
2023-04-09T03:45:46.944Z,30.6
2023-04-09T04:00:47.142Z,28.3
2023-04-09T04:15:48.234Z,20.9
2023-04-09T04:30:48.758Z,19.4
2023-04-09T04:35:26.384Z,21.5
2023-04-09T04:50:26.406Z,20.3
2023-04-09T05:05:27.436Z,24.8
2023-04-09T05:20:27.529Z,19.8
2023-04-09T05:35:27.827Z,28.5
2023-04-09T05:50:29.294Z,21.9
2023-04-09T06:05:29.260Z,20.9
2023-04-09T06:20:30.215Z,21.2
2023-04-09T06:35:31.481Z,21.3
2023-04-09T06:50:33.192Z,23.8
2023-04-09T07:05:31.313Z,23.1
2023-04-09T07:20:31.909Z,27.2
2023-04-09T07:35:32.047Z,25.3
2023-04-09T07:50:32.809Z,22.1
2023-04-09T08:05:32.764Z,28.3
2023-04-09T08:20:34.145Z,18.4
2023-04-09T08:35:35.483Z,17.8
2023-04-09T08:50:34.966Z,17.1
2023-04-09T09:05:35.359Z,16.9
2023-04-09T09:20:35.450Z,16.3
2023-04-09T09:35:35.610Z,12.8
2023-04-09T09:50:36.843Z,10.4
2023-04-09T10:05:36.807Z,8
2023-04-09T10:20:37.265Z,7.3
2023-04-09T10:35:37.916Z,6.3
2023-04-09T10:50:39.135Z,5.4
2023-04-09T11:05:39.803Z,5.5
2023-04-09T11:20:39.757Z,4.4
2023-04-09T11:35:40.045Z,3.2
2023-04-09T11:50:41.278Z,3
2023-04-09T12:05:48.542Z,6.6
2023-04-09T12:20:41.254Z,2.6
2023-04-09T12:35:41.770Z,6.1
2023-04-09T12:50:42.143Z,3.1
2023-04-09T13:05:47.291Z,3.5
2023-04-09T13:20:43.133Z,4.9
2023-04-09T13:35:43.623Z,3.1
2023-04-09T13:50:44.224Z,2
2023-04-09T14:05:45.062Z,1.8
2023-04-09T14:20:45.728Z,3.9
2023-04-09T14:35:45.555Z,1.8
2023-04-09T14:50:46.596Z,2.5
2023-04-09T15:05:47.108Z,2.5
2023-04-09T15:20:47.962Z,4.1
2023-04-09T15:35:48.054Z,3.6
2023-04-09T15:50:48.224Z,4.3
2023-04-09T16:05:49.420Z,4.5
2023-04-09T16:20:50.869Z,5
2023-04-09T16:36:02.863Z,5.5
2023-04-09T16:50:49.870Z,5.8
2023-04-09T17:05:51.191Z,10.1
2023-04-09T17:20:51.881Z,14.5
2023-04-09T17:35:52.855Z,7
2023-04-09T17:50:52.610Z,13.9
2023-04-09T18:05:53.468Z,8.2
2023-04-09T18:20:54.084Z,9.1
2023-04-09T18:35:54.738Z,9.6
2023-04-09T18:51:04.997Z,9.2
2023-04-09T19:05:55.704Z,9.2
2023-04-09T19:20:56.145Z,9
2023-04-09T19:35:56.862Z,16.1
2023-04-09T19:50:57.211Z,9.3
2023-04-09T20:05:58.468Z,11.4
2023-04-09T20:20:58.156Z,11
2023-04-09T20:36:01.414Z,9.5
2023-04-09T20:50:59.446Z,12.5
2023-04-09T21:06:00.550Z,9.6
2023-04-09T21:21:00.184Z,9.4
2023-04-09T21:36:00.584Z,9.9
2023-04-09T21:51:00.967Z,9.3
2023-04-09T22:00:49.602Z,8.5
2023-04-09T22:15:37.350Z,10.2
2023-04-09T22:30:37.415Z,12.3
2023-04-09T22:45:38.118Z,12.1
2023-04-09T23:00:37.713Z,18.6
2023-04-09T23:15:38.661Z,16
2023-04-09T23:30:40.208Z,12.3
2023-04-09T23:45:39.981Z,10.2
